Time;durP1;ratioP1;P1;durP2;ratioP2;P2;SDS_P1;SDS_P2;PMS_P1;PMS_P2;Temp;Humidity;BMP_temperature;BMP_pressure;BME280_temperature;BME280_humidity;BME280_pressure;Samples;Min_cycle;Max_cycle;Signal;HPM_P1;HPM_P2
2022/07/24 00:01:42;;;;;;;10.90;9.90;;;23.60;92.90;;;23.50;100.00;100746.16;4983209;28;20154;-81
2022/07/24 00:04:09;;;;;;;10.57;9.55;;;23.50;93.00;;;23.45;100.00;100740.25;4966463;28;20063;-81
2022/07/24 00:06:36;;;;;;;11.15;9.85;;;23.40;93.30;;;23.45;100.00;100736.72;4983107;28;20504;-82
2022/07/24 00:09:04;;;;;;;10.48;9.38;;;23.40;93.10;;;23.51;100.00;100744.31;4982514;28;20055;-81
2022/07/24 00:11:33;;;;;;;10.57;9.57;;;23.40;93.30;;;23.46;100.00;100746.47;4979447;28;20143;-81
2022/07/24 00:14:00;;;;;;;10.68;9.68;;;23.40;93.30;;;23.45;100.00;100742.91;4962942;28;20050;-82
2022/07/24 00:16:27;;;;;;;10.55;9.52;;;23.30;93.10;;;23.31;100.00;100751.13;4979683;28;20055;-81
2022/07/24 00:18:55;;;;;;;11.18;10.07;;;23.30;93.50;;;23.23;100.00;100755.19;4946343;28;20679;-80
2022/07/24 00:21:22;;;;;;;12.05;10.50;;;23.20;93.60;;;23.19;100.00;100751.03;4947108;28;20040;-80
2022/07/24 00:23:52;;;;;;;11.18;10.13;;;23.10;93.10;;;23.18;100.00;100748.44;4982567;28;20047;-79
2022/07/24 00:26:19;;;;;;;10.50;9.45;;;23.20;93.20;;;23.11;100.00;100748.00;4982549;28;20606;-80
2022/07/24 00:28:48;;;;;;;11.07;10.05;;;23.10;93.60;;;23.07;100.00;100749.19;4983885;28;20055;-81
2022/07/24 00:31:15;;;;;;;11.57;10.57;;;23.00;93.80;;;23.10;100.00;100740.94;4989932;28;20097;-81
2022/07/24 00:33:42;;;;;;;11.60;10.48;;;22.20;93.70;;;23.06;100.00;100729.53;4989341;28;20054;-80
2022/07/24 00:36:09;;;;;;;11.73;10.52;;;23.00;94.10;;;22.98;100.00;100736.44;4991003;28;20150;-80
2022/07/24 00:38:37;;;;;;;12.38;11.18;;;22.90;94.10;;;22.98;100.00;100737.31;4990240;28;20085;-79
2022/07/24 00:41:05;;;;;;;12.88;11.57;;;22.90;94.30;;;22.83;100.00;100739.22;4990058;28;20070;-80
2022/07/24 00:43:32;;;;;;;12.75;11.45;;;22.80;94.50;;;22.80;100.00;100734.94;4987710;28;20057;-81
2022/07/24 00:45:59;;;;;;;12.05;10.77;;;22.80;94.60;;;22.59;100.00;100731.94;4982457;28;20050;-81
2022/07/24 00:48:27;;;;;;;12.20;11.00;;;22.70;94.80;;;22.58;100.00;100737.38;4982108;28;20401;-81
2022/07/24 00:50:54;;;;;;;12.30;11.10;;;22.60;94.90;;;22.58;100.00;100724.84;4981738;28;20049;-81
2022/07/24 00:53:21;;;;;;;12.02;10.93;;;22.50;94.80;;;22.59;100.00;100726.56;4965477;28;20510;-81
2022/07/24 00:55:48;;;;;;;12.98;11.77;;;22.60;94.80;;;22.63;100.00;100728.06;4962761;28;20079;-81
2022/07/24 00:58:15;;;;;;;13.07;11.32;;;22.50;94.70;;;22.45;100.00;100723.94;4962847;28;20083;-81
2022/07/24 01:00:42;;;;;;;12.45;11.15;;;22.50;94.90;;;22.52;100.00;100720.78;4962018;28;20140;-81
2022/07/24 01:03:10;;;;;;;12.73;11.43;;;22.50;94.90;;;22.48;100.00;100739.84;4946234;28;20501;-80
2022/07/24 01:05:37;;;;;;;11.98;10.95;;;22.40;95.20;;;22.42;100.00;100721.50;4962616;28;20078;-80
2022/07/24 01:08:04;;;;;;;12.43;11.05;;;22.40;95.20;;;22.38;100.00;100737.75;4962481;28;20795;-80
2022/07/24 01:10:31;;;;;;;11.85;10.73;;;22.40;95.20;;;22.32;100.00;100719.44;4981868;28;20715;-79
2022/07/24 01:12:58;;;;;;;11.90;10.80;;;22.40;95.20;;;22.49;100.00;100731.72;4981727;28;20058;-81
2022/07/24 01:15:25;;;;;;;12.55;11.27;;;22.30;94.90;;;22.45;100.00;100730.16;4948891;28;20084;-81
2022/07/24 01:17:52;;;;;;;13.32;11.95;;;22.30;95.30;;;22.27;100.00;100734.09;4966227;28;20078;-81
2022/07/24 01:20:19;;;;;;;13.45;11.88;;;22.30;95.30;;;22.30;100.00;100742.78;4981828;28;20051;-81
2022/07/24 01:22:47;;;;;;;12.57;11.27;;;22.30;95.40;;;22.43;100.00;100736.59;4965856;28;20050;-80
2022/07/24 01:25:14;;;;;;;14.70;12.65;;;22.20;95.10;;;22.22;100.00;100729.03;4965728;28;20055;-81
2022/07/24 01:27:41;;;;;;;12.82;11.63;;;22.20;95.60;;;22.17;100.00;100723.16;4989170;28;20079;-85
2022/07/24 01:30:09;;;;;;;13.98;12.45;;;22.10;95.40;;;21.86;100.00;100725.19;4993579;28;20051;-84
2022/07/24 01:32:37;;;;;;;14.38;12.98;;;22.10;95.80;;;21.83;100.00;100738.78;4993838;28;20126;-85
2022/07/24 01:35:05;;;;;;;13.25;12.15;;;21.90;95.90;;;21.72;100.00;100731.47;5001291;28;20051;-85
2022/07/24 01:37:32;;;;;;;13.07;11.23;;;21.90;96.30;;;21.76;100.00;100746.38;5004583;28;20051;-85
2022/07/24 01:39:59;;;;;;;12.10;10.93;;;21.80;96.20;;;21.83;100.00;100734.28;4993569;28;20059;-83
2022/07/24 01:42:26;;;;;;;12.63;10.52;;;21.80;96.00;;;21.90;100.00;100732.06;4991968;28;20043;-83
2022/07/24 01:44:53;;;;;;;11.52;10.43;;;21.80;96.00;;;22.09;100.00;100742.41;4993261;28;20130;-84
2022/07/24 01:47:20;;;;;;;11.52;10.50;;;22.10;95.80;;;21.93;100.00;100737.19;4995225;28;20039;-84
2022/07/24 01:49:47;;;;;;;12.15;10.90;;;21.90;95.60;;;21.77;100.00;100737.38;4956358;29;20730;-81
2022/07/24 01:52:15;;;;;;;11.27;10.27;;;21.80;95.70;;;21.74;100.00;100735.75;4962746;28;20066;-81
2022/07/24 01:54:42;;;;;;;10.57;9.68;;;22.40;95.80;;;21.86;100.00;100738.59;4996330;28;20661;-80
2022/07/24 01:57:09;;;;;;;11.50;10.50;;;21.80;95.70;;;21.67;100.00;100746.00;4987867;28;20053;-80
2022/07/24 01:59:36;;;;;;;11.13;10.13;;;21.80;95.60;;;21.69;100.00;100751.25;4978533;28;20071;-80
2022/07/24 02:02:04;;;;;;;12.75;11.02;;;21.70;95.80;;;21.65;100.00;100747.03;4972765;28;20054;-82
2022/07/24 02:04:31;;;;;;;15.20;11.10;;;21.60;95.80;;;21.66;100.00;100764.84;4980201;28;20727;-80
2022/07/24 02:06:58;;;;;;;11.40;10.38;;;21.60;95.90;;;21.66;100.00;100754.97;4964314;29;20054;-80
2022/07/24 02:09:25;;;;;;;11.90;10.80;;;21.60;95.90;;;21.50;100.00;100749.75;4980568;28;20141;-81
2022/07/24 02:11:53;;;;;;;12.18;11.18;;;21.50;96.20;;;21.42;100.00;100738.66;4966693;29;20062;-81
2022/07/24 02:14:20;;;;;;;12.05;10.15;;;21.50;96.20;;;21.58;100.00;100759.97;4998181;28;20453;-81
2022/07/24 02:16:47;;;;;;;11.70;10.60;;;21.40;96.00;;;21.61;100.00;100750.84;4997485;28;20146;-80
2022/07/24 02:19:14;;;;;;;12.20;10.95;;;21.40;95.90;;;21.50;100.00;100757.78;4995533;28;20699;-81
2022/07/24 02:21:41;;;;;;;11.95;10.88;;;21.50;96.10;;;21.44;100.00;100749.28;4964631;29;20063;-80
2022/07/24 02:24:08;;;;;;;12.48;11.32;;;21.50;96.20;;;21.41;100.00;100762.88;4979692;28;20145;-80
2022/07/24 02:26:35;;;;;;;12.35;11.07;;;21.40;96.20;;;21.30;100.00;100755.50;4963896;29;20043;-80
2022/07/24 02:29:03;;;;;;;12.35;11.02;;;21.30;96.40;;;21.13;100.00;100751.22;4980483;28;20682;-80
2022/07/24 02:31:30;;;;;;;12.68;11.43;;;21.30;96.80;;;21.07;100.00;100747.97;4982076;28;20047;-80
2022/07/24 02:33:58;;;;;;;11.68;10.57;;;21.20;96.80;;;20.96;100.00;100748.63;4966499;29;20495;-81
2022/07/24 02:36:25;;;;;;;12.18;10.02;;;21.10;96.80;;;21.14;100.00;100751.09;4962779;28;20070;-80
2022/07/24 02:38:52;;;;;;;12.43;11.18;;;21.10;96.50;;;21.03;100.00;100748.25;4956083;28;20055;-81
2022/07/24 02:41:19;;;;;;;11.90;10.85;;;21.10;96.80;;;21.00;100.00;100746.63;4966383;28;20054;-80
2022/07/24 02:43:46;;;;;;;12.02;10.10;;;21.10;97.00;;;20.98;100.00;100764.59;4961985;28;20134;-83
2022/07/24 02:46:13;;;;;;;11.40;10.38;;;21.00;97.00;;;20.88;100.00;100758.94;4977180;28;20788;-80
2022/07/24 02:48:41;;;;;;;11.32;10.23;;;22.10;97.40;;;20.67;100.00;100750.38;4960358;28;20058;-80
2022/07/24 02:51:08;;;;;;;11.13;10.13;;;20.90;97.30;;;20.76;100.00;100760.53;4959555;29;20054;-79
2022/07/24 02:53:35;;;;;;;12.10;11.00;;;20.80;97.20;;;20.68;100.00;100762.81;4959509;29;20256;-80
2022/07/24 02:56:02;;;;;;;11.77;10.55;;;20.80;97.40;;;20.59;100.00;100761.53;4975334;28;20057;-80
2022/07/24 02:58:29;;;;;;;12.00;10.88;;;20.80;97.40;;;20.57;100.00;100755.44;4974701;28;20055;-80
2022/07/24 03:00:56;;;;;;;12.48;11.30;;;20.70;97.30;;;20.63;100.00;100760.41;4957940;28;20059;-81
2022/07/24 03:03:23;;;;;;;12.73;11.27;;;20.70;97.50;;;20.44;100.00;100759.78;4958435;28;20043;-81
2022/07/24 03:05:50;;;;;;;12.05;10.95;;;20.60;97.60;;;20.42;100.00;100765.22;4957793;28;20050;-83
2022/07/24 03:08:17;;;;;;;12.63;11.52;;;20.60;97.60;;;20.29;100.00;100751.72;4974499;28;20051;-81
2022/07/24 03:10:48;;;;;;;12.23;11.07;;;20.50;97.60;;;20.32;100.00;100764.91;4958326;28;20053;-82
2022/07/24 03:13:15;;;;;;;12.55;11.27;;;20.40;97.70;;;20.33;100.00;100761.28;4973950;28;20046;-84
2022/07/24 03:15:43;;;;;;;14.77;11.57;;;20.40;97.70;;;20.25;100.00;100771.56;4957691;28;20047;-81
2022/07/24 03:18:10;;;;;;;12.60;11.50;;;20.40;97.70;;;20.19;100.00;100761.22;4958314;28;20047;-82
2022/07/24 03:20:48;;;;;;;12.77;11.38;;;20.30;97.50;;;20.24;100.00;100759.16;4958683;28;20154;-82
2022/07/24 03:23:15;;;;;;;12.20;11.00;;;20.30;97.50;;;20.33;100.00;100758.59;4957886;28;20053;-83
2022/07/24 03:25:42;;;;;;;12.07;10.98;;;20.90;97.70;;;20.20;100.00;100765.59;4990107;28;20142;-83
2022/07/24 03:28:09;;;;;;;11.60;10.48;;;20.30;97.80;;;20.05;100.00;100762.88;4990015;28;20230;-82
2022/07/24 03:30:36;;;;;;;12.23;11.13;;;21.00;98.00;;;20.10;100.00;100773.31;4989645;28;20066;-84
2022/07/24 03:33:03;;;;;;;12.32;11.23;;;20.20;97.90;;;19.95;100.00;100764.38;4974111;28;20043;-81
2022/07/24 03:35:30;;;;;;;12.73;11.48;;;20.20;98.10;;;19.94;100.00;100766.16;4974604;28;20800;-84
2022/07/24 03:37:57;;;;;;;12.70;11.23;;;20.10;97.80;;;20.03;100.00;100770.13;4995759;28;20051;-81
2022/07/24 03:40:24;;;;;;;12.52;11.32;;;20.10;98.00;;;20.08;100.00;100775.19;4993627;28;20047;-84
2022/07/24 03:42:51;;;;;;;12.07;10.98;;;20.10;98.00;;;20.08;100.00;100773.41;4978017;28;20043;-84
2022/07/24 03:45:19;;;;;;;13.23;11.85;;;20.10;98.10;;;19.99;100.00;100776.59;4993365;28;20059;-85
2022/07/24 03:47:47;;;;;;;11.77;10.63;;;20.10;97.90;;;20.09;100.00;100785.81;4993215;28;20082;-82
2022/07/24 03:50:14;;;;;;;16.90;11.07;;;19.70;97.90;;;20.04;100.00;100771.84;4993244;28;20059;-85
2022/07/24 03:52:48;;;;;;;10.93;9.93;;;20.00;97.90;;;19.99;100.00;100784.59;4949239;28;20111;-84
2022/07/24 03:55:16;;;;;;;12.43;11.25;;;20.00;97.60;;;19.91;100.00;100774.31;4957699;28;20054;-84
2022/07/24 03:57:43;;;;;;;11.40;10.13;;;20.00;97.60;;;19.80;100.00;100782.94;4941689;28;20062;-84
2022/07/24 04:00:11;;;;;;;11.60;10.45;;;20.00;97.80;;;19.92;100.00;100780.56;4956687;28;20048;-84
2022/07/24 04:02:39;;;;;;;11.85;10.75;;;20.00;97.80;;;20.00;100.00;100783.66;4952756;28;20060;-83
2022/07/24 04:05:08;;;;;;;12.68;11.32;;;20.00;97.90;;;19.82;100.00;100786.41;4956973;28;20075;-79
2022/07/24 04:07:37;;;;;;;12.37;11.27;;;20.00;98.40;;;19.97;100.00;100797.19;4960849;28;20110;-80
2022/07/24 04:10:07;;;;;;;12.73;11.60;;;19.90;98.30;;;19.81;100.00;100798.03;4961417;28;20319;-80
2022/07/24 04:12:34;;;;;;;12.00;10.82;;;19.90;98.50;;;19.81;100.00;100802.47;4994331;28;20119;-80
2022/07/24 04:15:01;;;;;;;12.50;11.30;;;19.80;98.00;;;19.73;100.00;100794.91;4982789;28;20050;-84
2022/07/24 04:17:28;;;;;;;12.35;11.15;;;19.90;98.30;;;19.92;100.00;100797.44;4993039;28;20044;-79
2022/07/24 04:19:56;;;;;;;11.82;10.65;;;19.90;98.10;;;19.87;100.00;100799.50;4983107;28;20047;-79
2022/07/24 04:22:23;;;;;;;11.02;10.07;;;19.90;98.10;;;19.94;100.00;100795.53;4983947;28;20055;-79
2022/07/24 04:24:50;;;;;;;11.82;10.60;;;19.80;98.10;;;19.83;100.00;100793.44;4965816;28;20039;-79
2022/07/24 04:27:17;;;;;;;11.77;10.73;;;19.80;98.30;;;19.87;100.00;100799.50;4982663;28;20071;-80
2022/07/24 04:29:44;;;;;;;12.20;11.00;;;19.90;98.40;;;19.95;100.00;100799.09;5003443;28;20054;-80
2022/07/24 04:32:11;;;;;;;11.95;10.85;;;19.90;98.40;;;20.06;100.00;100801.16;4979130;28;20047;-80
2022/07/24 04:34:38;;;;;;;12.48;11.25;;;20.00;98.40;;;20.16;100.00;100809.47;4976250;28;20057;-79
2022/07/24 04:37:05;;;;;;;12.23;11.13;;;20.00;98.10;;;20.13;100.00;100805.16;4992816;28;20546;-79
2022/07/24 04:39:32;;;;;;;11.60;10.50;;;20.00;98.50;;;19.95;100.00;100807.94;4989584;28;20398;-79
2022/07/24 04:42:00;;;;;;;12.48;11.18;;;20.10;98.40;;;20.00;100.00;100805.03;4989065;28;20046;-80
2022/07/24 04:44:27;;;;;;;12.32;11.32;;;20.00;98.40;;;20.03;100.00;100804.84;4990742;28;20122;-80
2022/07/24 04:46:54;;;;;;;14.43;12.23;;;20.00;98.40;;;20.03;100.00;100804.84;4990289;28;20067;-79
2022/07/24 04:49:22;;;;;;;12.40;11.30;;;20.00;98.60;;;20.08;100.00;100808.13;4989557;28;20426;-79
2022/07/24 04:51:49;;;;;;;13.95;12.55;;;20.00;98.60;;;20.08;100.00;100810.81;4985241;28;20107;-83
2022/07/24 04:54:16;;;;;;;12.70;11.40;;;20.10;98.60;;;20.17;100.00;100800.53;4968070;28;20052;-83
2022/07/24 04:56:43;;;;;;;13.65;12.25;;;20.10;98.70;;;20.10;100.00;100800.00;4968444;28;20047;-83
2022/07/24 04:59:10;;;;;;;13.27;12.15;;;20.10;98.80;;;20.18;100.00;100810.25;4968575;28;20661;-81
2022/07/24 05:01:38;;;;;;;13.10;11.52;;;20.20;98.80;;;20.35;100.00;100807.47;4969185;28;20559;-82
2022/07/24 05:04:05;;;;;;;14.10;12.70;;;20.20;98.70;;;20.40;100.00;100791.16;4972609;28;20428;-83
2022/07/24 05:06:32;;;;;;;13.23;11.93;;;20.40;98.60;;;20.38;100.00;100811.78;4955868;28;20077;-82
2022/07/24 05:08:59;;;;;;;13.40;12.18;;;20.30;99.00;;;20.40;100.00;100816.09;4955568;28;20469;-83
2022/07/24 05:11:27;;;;;;;13.07;11.88;;;20.30;98.90;;;20.42;100.00;100813.31;4955205;29;20051;-82
2022/07/24 05:13:55;;;;;;;12.48;11.18;;;20.30;98.80;;;20.39;100.00;100806.34;4955338;28;20929;-83
2022/07/24 05:16:22;;;;;;;13.38;12.18;;;20.40;98.70;;;20.49;100.00;100811.13;4954433;28;20101;-82
2022/07/24 05:18:49;;;;;;;13.45;12.35;;;20.30;98.90;;;20.39;100.00;100811.69;4954068;28;20417;-84
2022/07/24 05:21:16;;;;;;;14.23;12.75;;;20.40;98.80;;;20.44;100.00;100821.25;4970814;28;20081;-83
2022/07/24 05:23:43;;;;;;;13.25;12.05;;;20.40;99.00;;;20.53;100.00;100820.72;4952823;29;20382;-82
2022/07/24 05:26:11;;;;;;;14.13;12.75;;;20.50;98.80;;;20.53;100.00;100815.38;4983310;28;20036;-81
2022/07/24 05:28:38;;;;;;;14.32;12.93;;;20.50;99.20;;;20.61;100.00;100828.28;4986378;28;20047;-81
2022/07/24 05:31:05;;;;;;;14.50;13.00;;;20.50;99.10;;;20.54;100.00;100817.94;4983100;28;20800;-81
2022/07/24 05:33:32;;;;;;;16.65;13.52;;;20.50;99.10;;;20.65;100.00;100822.66;4969108;28;20151;-83
2022/07/24 05:35:59;;;;;;;14.05;12.85;;;20.50;99.30;;;20.81;100.00;100817.28;4950917;28;20058;-82
2022/07/24 05:38:26;;;;;;;15.43;14.02;;;20.60;99.10;;;20.86;100.00;100818.81;4968022;28;20063;-81
2022/07/24 05:40:55;;;;;;;15.70;13.25;;;20.60;99.40;;;20.83;100.00;100823.41;4983740;28;20115;-82
2022/07/24 05:43:22;;;;;;;15.70;14.32;;;21.70;99.90;;;20.88;100.00;100831.16;4984497;28;20043;-83
2022/07/24 05:45:49;;;;;;;16.40;14.77;;;20.70;99.60;;;20.91;100.00;100828.28;4969722;28;20075;-83
2022/07/24 05:48:16;;;;;;;14.93;13.63;;;20.70;99.60;;;20.89;100.00;100829.31;4986411;28;20473;-83
2022/07/24 05:50:43;;;;;;;15.65;14.15;;;20.80;99.60;;;20.97;100.00;100827.91;4975232;28;20058;-84
2022/07/24 05:53:10;;;;;;;17.80;15.13;;;20.80;99.50;;;21.00;100.00;100823.34;4974702;28;20047;-84
2022/07/24 05:55:37;;;;;;;16.13;14.13;;;20.90;99.60;;;21.01;100.00;100806.34;4958298;28;20173;-83
2022/07/24 05:58:04;;;;;;;15.52;14.13;;;20.90;99.60;;;21.13;100.00;100820.78;4991018;28;20467;-83
2022/07/24 06:00:31;;;;;;;16.40;14.75;;;21.30;99.70;;;21.10;100.00;100816.47;4959059;28;20122;-83
2022/07/24 06:02:59;;;;;;;15.13;13.73;;;21.00;99.40;;;21.11;100.00;100810.16;4993131;28;20062;-84
2022/07/24 06:05:26;;;;;;;15.20;13.68;;;21.00;99.40;;;21.19;100.00;100815.03;4995199;28;20047;-85
2022/07/24 06:07:53;;;;;;;15.27;13.77;;;21.00;99.30;;;21.26;100.00;100813.72;4995014;28;20050;-85
2022/07/24 06:10:20;;;;;;;14.70;13.25;;;21.80;99.30;;;21.32;100.00;100799.94;4978676;28;20089;-85
2022/07/24 06:12:52;;;;;;;16.20;14.70;;;21.10;99.20;;;21.41;100.00;100814.56;4993308;28;20055;-85
2022/07/24 06:15:19;;;;;;;15.80;14.20;;;21.20;98.80;;;21.49;100.00;100817.63;4977479;28;20053;-85
2022/07/24 06:17:46;;;;;;;14.82;13.43;;;21.20;98.90;;;21.52;100.00;100809.41;4976720;28;20547;-84
2022/07/24 06:20:16;;;;;;;14.65;13.35;;;21.30;99.00;;;21.52;100.00;100816.56;4992015;28;20145;-84
2022/07/24 06:22:44;;;;;;;15.48;13.68;;;21.40;99.00;;;21.63;100.00;100829.28;4991351;28;20047;-84
2022/07/24 06:25:16;;;;;;;13.68;12.30;;;21.40;98.40;;;21.73;100.00;100829.59;4990713;28;20130;-84
2022/07/24 06:27:49;;;;;;;14.88;13.35;;;21.50;98.50;;;21.76;100.00;100814.16;4991315;28;20051;-84
2022/07/24 06:30:22;;;;;;;14.23;12.90;;;21.50;98.60;;;21.88;100.00;100825.03;4992282;28;20047;-85
2022/07/24 06:32:53;;;;;;;14.48;13.07;;;21.50;98.40;;;21.83;100.00;100822.66;4995396;28;20051;-85
2022/07/24 06:35:20;;;;;;;;;;;21.60;98.30;;;21.84;100.00;100820.84;4996140;28;20604;-85
2022/07/24 06:37:47;;;;;;;13.95;12.48;;;20.80;98.00;;;21.94;100.00;100830.03;4979449;28;19961;-85
2022/07/24 06:40:18;;;;;;;13.90;12.50;;;21.70;98.00;;;22.03;100.00;100825.88;5002917;28;20047;-84
2022/07/24 06:42:48;;;;;;;12.13;10.95;;;21.70;98.00;;;22.08;100.00;100815.72;4986662;28;20513;-75
2022/07/24 06:45:16;;;;;;;14.48;11.95;;;21.80;98.00;;;22.14;100.00;100825.19;4983237;28;20061;-74
2022/07/24 06:47:43;;;;;;;13.85;11.90;;;21.90;98.00;;;22.28;100.00;100838.53;4983281;28;20039;-74
2022/07/24 06:50:12;;;;;;;12.00;10.90;;;22.00;98.10;;;22.35;100.00;100844.34;4966954;28;20051;-74
2022/07/24 06:52:40;;;;;;;16.10;13.52;;;22.00;98.10;;;22.17;100.00;100828.53;4983151;28;20062;-75
2022/07/24 06:55:09;;;;;;;14.73;13.25;;;22.10;97.70;;;22.37;100.00;100835.22;4983181;28;20051;-75
2022/07/24 06:57:36;;;;;;;14.20;12.98;;;22.10;97.80;;;22.42;100.00;100834.91;4983104;28;20051;-75
2022/07/24 07:00:09;;;;;;;14.63;13.13;;;22.20;97.60;;;22.52;100.00;100837.88;4983479;28;20408;-75
2022/07/24 07:02:37;;;;;;;12.82;11.55;;;22.30;97.50;;;22.60;100.00;100832.88;4982973;28;20703;-75
2022/07/24 07:05:07;;;;;;;14.50;13.15;;;22.30;97.60;;;22.76;100.00;100834.50;4982616;28;20047;-75
2022/07/24 07:07:35;;;;;;;;;;;22.40;97.80;;;22.82;100.00;100831.38;4967693;28;20040;-75
2022/07/24 07:10:04;;;;;;;14.15;12.85;;;22.50;97.60;;;22.83;100.00;100825.06;4950359;29;19929;-76
2022/07/24 07:12:31;;;;;;;16.63;13.37;;;22.60;97.30;;;22.82;100.00;100826.03;4967612;28;20127;-76
2022/07/24 07:15:06;;;;;;;14.95;13.45;;;22.60;97.20;;;22.95;100.00;100816.16;4961810;28;20319;-76
2022/07/24 07:17:33;;;;;;;16.48;13.88;;;22.70;97.00;;;22.98;100.00;100812.41;4963793;28;20127;-76
2022/07/24 07:20:00;;;;;;;17.98;13.52;;;22.70;96.70;;;23.07;100.00;100817.13;4963685;28;20058;-76
2022/07/24 07:22:27;;;;;;;14.93;13.48;;;22.80;96.70;;;23.05;100.00;100815.53;4971731;28;20555;-77
2022/07/24 07:24:54;;;;;;;13.90;12.52;;;22.90;96.60;;;23.04;100.00;100811.97;4982696;28;20046;-76
2022/07/24 07:27:21;;;;;;;13.20;11.93;;;22.90;96.60;;;23.14;100.00;100812.19;4983024;28;20047;-78
2022/07/24 07:29:48;;;;;;;13.90;12.48;;;22.90;96.50;;;23.20;100.00;100811.78;4982420;28;20043;-76
2022/07/24 07:32:15;;;;;;;13.02;11.73;;;23.00;96.30;;;23.30;100.00;100813.81;4982965;28;20110;-76
2022/07/24 07:34:42;;;;;;;14.55;12.10;;;23.10;96.30;;;23.38;100.00;100819.53;4981993;28;20039;-75
2022/07/24 07:37:09;;;;;;;13.23;12.13;;;23.10;96.20;;;23.49;100.00;100808.88;4966737;28;20066;-76
2022/07/24 07:39:36;;;;;;;13.15;11.93;;;23.10;96.20;;;23.49;100.00;100808.00;4951273;28;20520;-76
2022/07/24 07:42:04;;;;;;;12.77;11.68;;;23.20;96.10;;;23.53;100.00;100811.34;4953827;28;20411;-76
2022/07/24 07:44:31;;;;;;;14.52;13.02;;;23.30;96.20;;;23.61;100.00;100804.44;4956299;28;20122;-76
2022/07/24 07:46:58;;;;;;;13.43;12.23;;;23.30;96.10;;;23.69;100.00;100800.31;4956114;28;20252;-76
2022/07/24 07:49:25;;;;;;;12.65;11.52;;;23.40;96.10;;;23.85;100.00;100805.44;4982267;28;20516;-77
2022/07/24 07:51:52;;;;;;;13.55;12.20;;;23.50;95.90;;;23.92;100.00;100801.31;4982670;28;20051;-76
2022/07/24 07:54:19;;;;;;;13.10;11.77;;;23.60;95.90;;;23.93;100.00;100803.03;4982429;28;20047;-77
2022/07/24 07:56:46;;;;;;;14.65;11.43;;;23.70;95.90;;;23.94;100.00;100797.56;4982209;28;20082;-78
2022/07/24 07:59:13;;;;;;;12.25;11.00;;;23.70;95.20;;;24.02;100.00;100794.34;4982193;28;20057;-76
2022/07/24 08:01:40;;;;;;;11.00;9.57;;;23.80;94.70;;;24.11;100.00;100797.31;4982725;28;20122;-77
2022/07/24 08:04:07;;;;;;;10.15;9.18;;;23.80;94.30;;;24.14;100.00;100795.25;4982474;28;20059;-77
2022/07/24 08:06:34;;;;;;;11.32;10.23;;;23.90;93.90;;;24.24;100.00;100800.78;4982742;28;20117;-76
2022/07/24 08:09:02;;;;;;;11.30;10.20;;;23.90;94.10;;;24.43;100.00;100805.63;4982752;28;20047;-75
2022/07/24 08:11:31;;;;;;;9.88;8.88;;;24.10;94.40;;;24.51;100.00;100805.06;4980951;28;20523;-77
2022/07/24 08:13:58;;;;;;;10.98;10.02;;;24.20;94.20;;;24.59;100.00;100796.41;4967260;28;20047;-80
2022/07/24 08:16:25;;;;;;;10.48;9.48;;;24.30;93.70;;;24.61;100.00;100803.38;4991033;28;20055;-79
2022/07/24 08:18:52;;;;;;;10.65;9.55;;;24.30;93.40;;;24.58;100.00;100795.53;4961535;29;20055;-78
2022/07/24 08:21:19;;;;;;;10.63;9.40;;;24.30;93.00;;;24.76;100.00;100795.97;4978851;28;20217;-80
2022/07/24 08:23:46;;;;;;;9.23;8.35;;;24.40;93.00;;;24.85;100.00;100799.78;4978265;28;20047;-81
2022/07/24 08:26:14;;;;;;;10.50;8.30;;;24.50;92.80;;;24.91;100.00;100793.94;4978224;28;20468;-79
2022/07/24 08:28:41;;;;;;;8.75;7.85;;;24.50;91.70;;;24.88;100.00;100799.53;4989158;28;20074;-82
2022/07/24 08:31:08;;;;;;;8.85;8.10;;;24.60;91.80;;;24.99;100.00;100800.53;4971773;28;20047;-81
2022/07/24 08:33:35;;;;;;;9.02;8.23;;;24.60;92.10;;;24.99;100.00;100801.41;4988734;28;20047;-82
2022/07/24 08:36:02;;;;;;;10.90;9.32;;;24.70;91.90;;;24.95;100.00;100799.09;4969079;28;20158;-76
2022/07/24 08:38:29;;;;;;;11.60;9.05;;;24.70;92.00;;;24.94;100.00;100797.38;4954836;28;20085;-77
2022/07/24 08:40:56;;;;;;;10.30;9.38;;;24.70;92.00;;;24.90;100.00;100794.94;4964089;28;20504;-75
2022/07/24 08:43:24;;;;;;;12.68;9.68;;;24.70;91.90;;;24.96;100.00;100801.63;4964963;28;20045;-76
2022/07/24 08:45:54;;;;;;;11.00;9.63;;;24.70;91.80;;;25.08;100.00;100798.97;4964150;28;20688;-76
2022/07/24 08:48:22;;;;;;;9.60;8.40;;;24.80;92.10;;;25.22;100.00;100790.66;4964911;28;20035;-75
2022/07/24 08:50:52;;;;;;;9.35;8.55;;;24.90;92.00;;;25.30;100.00;100793.59;4965013;28;20054;-75
2022/07/24 08:53:23;;;;;;;13.77;9.02;;;24.90;92.30;;;25.38;100.00;100795.69;4964484;28;20054;-76
2022/07/24 08:55:50;;;;;;;12.05;8.52;;;25.00;92.10;;;25.46;100.00;100792.38;4959289;28;20059;-76
2022/07/24 08:58:17;;;;;;;9.40;8.45;;;25.10;91.80;;;25.60;100.00;100796.66;4975154;28;20046;-75
2022/07/24 09:00:45;;;;;;;9.27;8.38;;;25.20;91.50;;;25.51;97.28;100797.41;4964393;28;20078;-75
2022/07/24 09:03:12;;;;;;;9.13;8.32;;;25.20;90.90;;;25.57;96.55;100789.69;4964254;28;20054;-76
2022/07/24 09:05:58;;;;;;;11.40;9.23;;;25.30;90.90;;;25.66;98.03;100792.63;4981518;28;20051;-76
2022/07/24 09:08:25;;;;;;;8.93;7.93;;;25.30;91.00;;;25.79;100.00;100796.03;4960378;28;20601;-75
2022/07/24 09:11:04;;;;;;;10.60;9.52;;;25.30;91.40;;;25.84;99.84;100791.09;4954317;28;20119;-75
2022/07/24 09:16:24;;;;;;;11.50;9.45;;;25.50;91.20;;;26.06;100.00;100789.31;4968230;28;20126;-75
2022/07/24 09:19:07;;;;;;;12.07;9.18;;;25.60;91.60;;;26.16;99.59;100779.47;4973831;28;20051;-75
2022/07/24 09:21:40;;;;;;;12.13;9.48;;;25.70;91.30;;;26.21;96.72;100781.81;4976017;28;20047;-75
2022/07/24 09:24:20;;;;;;;9.73;8.30;;;25.80;90.90;;;26.22;96.47;100777.28;4991969;28;20118;-78
2022/07/24 09:26:52;;;;;;;8.85;7.88;;;25.80;90.70;;;26.38;95.88;100774.16;4983594;28;20629;-76
2022/07/24 09:29:25;;;;;;;8.55;7.72;;;25.90;90.70;;;26.42;97.22;100779.16;4996685;28;20047;-77
2022/07/24 09:32:01;;;;;;;8.57;7.78;;;26.00;90.80;;;26.54;93.30;100771.84;4968609;28;20397;-78
2022/07/24 09:34:39;;;;;;;8.25;7.45;;;26.10;90.40;;;26.57;90.92;100765.34;4972905;28;20055;-77
2022/07/24 09:37:08;;;;;;;8.60;7.65;;;26.10;90.20;;;26.55;92.12;100770.88;4964156;28;20055;-75
2022/07/24 09:39:37;;;;;;;9.27;7.57;;;26.20;90.20;;;26.66;86.76;100771.78;4964418;28;20048;-74
2022/07/24 09:42:06;;;;;;;12.00;7.65;;;26.20;89.50;;;26.83;84.18;100768.47;4964308;28;20051;-74
2022/07/24 09:44:34;;;;;;;8.07;7.35;;;26.30;88.80;;;26.90;83.74;100768.84;4963468;28;20051;-75
2022/07/24 09:47:11;;;;;;;8.75;7.85;;;26.40;88.80;;;26.95;80.47;100769.28;4962684;28;20051;-74
2022/07/24 09:49:39;;;;;;;8.38;7.57;;;26.50;88.10;;;27.05;80.71;100772.03;4963136;28;20055;-75
2022/07/24 09:52:18;;;;;;;8.10;7.30;;;26.60;88.00;;;26.99;71.72;100775.28;4964213;28;20054;-75
2022/07/24 09:54:50;;;;;;;9.05;7.90;;;26.60;85.90;;;27.00;70.94;100760.78;4978470;28;20066;-75
2022/07/24 09:57:27;;;;;;;8.77;7.25;;;26.60;85.50;;;27.23;66.25;100760.59;4980395;28;20051;-75
2022/07/24 10:00:00;;;;;;;7.65;6.90;;;26.70;84.60;;;27.28;76.44;100763.75;4979180;28;20511;-75
2022/07/24 10:02:34;;;;;;;9.02;7.47;;;26.80;86.80;;;27.32;72.13;100767.88;4979173;28;20090;-75
2022/07/24 10:05:03;;;;;;;10.18;7.78;;;26.80;85.70;;;27.35;71.53;100769.47;4965555;28;20050;-75